createdAt,value
2023-01-13T00:01:46.544Z,100364.88
2023-01-13T00:04:13.347Z,100366.78
2023-01-13T04:35:36.559Z,100283.92
2023-01-13T04:38:11.774Z,100289.16
2023-01-13T04:40:39.438Z,100291.44
2023-01-13T04:43:06.323Z,100289.24
2023-01-13T04:45:33.291Z,100292.27
2023-01-13T04:48:00.402Z,100289.99
2023-01-13T04:50:27.621Z,100285.65
2023-01-13T04:52:54.598Z,100285.67
2023-01-13T04:55:22.507Z,100284.75
2023-01-13T04:57:49.435Z,100284.57
2023-01-13T05:00:18.356Z,100285.81
2023-01-13T05:02:45.352Z,100284.54
2023-01-13T05:05:12.218Z,100288.20
2023-01-13T05:07:39.144Z,100291.31
2023-01-13T05:10:06.454Z,100292.80
2023-01-13T05:12:52.102Z,100294.19
2023-01-13T05:15:37.657Z,100300.67
2023-01-13T05:18:04.805Z,100304.05
2023-01-13T05:20:31.715Z,100302.27
2023-01-13T05:23:17.527Z,100301.08
2023-01-13T05:25:44.735Z,100300.11
2023-01-13T05:28:11.798Z,100299.13
2023-01-13T05:30:44.590Z,100298.43
2023-01-13T05:33:12.528Z,100300.08
2023-01-13T05:35:40.383Z,100296.13
2023-01-13T05:38:07.379Z,100294.40
2023-01-13T05:40:52.918Z,100292.39
2023-01-13T05:43:21.413Z,100294.30
2023-01-13T05:45:51.783Z,100290.04
2023-01-13T05:48:19.574Z,100293.46
2023-01-13T05:50:46.754Z,100291.52
2023-01-13T05:53:13.783Z,100292.58
2023-01-13T05:55:41.491Z,100296.09
2023-01-13T05:58:09.138Z,100300.11
2023-01-13T06:00:36.102Z,100301.68
2023-01-13T06:03:03.303Z,100308.14
2023-01-13T06:05:30.236Z,100311.92
2023-01-13T06:07:58.160Z,100317.60
2023-01-13T06:10:25.795Z,100313.83
2023-01-13T06:12:52.634Z,100311.13
2023-01-13T06:15:19.760Z,100316.14
2023-01-13T06:17:46.635Z,100317.30
2023-01-13T06:20:14.078Z,100311.95
2023-01-13T06:22:43.271Z,100312.86
2023-01-13T06:25:33.369Z,100311.02
2023-01-13T06:28:00.221Z,100309.14
2023-01-13T06:30:28.378Z,100309.18
2023-01-13T06:32:56.012Z,100307.20
2023-01-13T06:35:25.783Z,100310.61
2023-01-13T06:37:53.586Z,100308.98
2023-01-13T06:40:20.409Z,100317.73
2023-01-13T06:43:05.942Z,100313.34
2023-01-13T06:45:32.878Z,100312.52
2023-01-13T06:48:00.093Z,100307.29
2023-01-13T06:50:27.386Z,100309.71
2023-01-13T06:52:54.294Z,100307.79
2023-01-13T06:55:21.157Z,100306.72
2023-01-13T06:57:49.014Z,100304.28
2023-01-13T07:00:16.210Z,100307.31
2023-01-13T07:02:43.190Z,100304.11
2023-01-13T07:05:10.193Z,100305.83
2023-01-13T07:07:37.070Z,100303.69
2023-01-13T07:10:04.881Z,100303.33
2023-01-13T07:12:51.714Z,100304.56
2023-01-13T07:15:18.558Z,100310.17
2023-01-13T07:17:45.489Z,100310.14
2023-01-13T07:20:13.245Z,100311.96
2023-01-13T07:22:40.137Z,100317.75
2023-01-13T07:25:08.327Z,100320.10
2023-01-13T07:27:35.348Z,100321.75
2023-01-13T07:30:02.822Z,100322.87
2023-01-13T07:32:32.531Z,100321.86
2023-01-13T07:35:05.611Z,100320.55
2023-01-13T07:37:36.847Z,100320.59
2023-01-13T07:40:04.630Z,100320.86
2023-01-13T07:42:50.293Z,100320.27
2023-01-13T07:45:17.277Z,100321.78
2023-01-13T07:47:44.165Z,100325.47
2023-01-13T07:50:11.322Z,100323.83
2023-01-13T07:52:38.305Z,100321.36
2023-01-13T07:55:05.535Z,100324.64
2023-01-13T07:57:32.396Z,100326.51
2023-01-13T07:59:59.260Z,100325.02
2023-01-13T08:02:26.269Z,100323.75
2023-01-13T08:04:53.196Z,100328.16
2023-01-13T08:07:20.211Z,100327.52
2023-01-13T08:09:47.109Z,100322.59
2023-01-13T08:12:32.940Z,100321.30
2023-01-13T08:14:59.758Z,100318.63
2023-01-13T08:17:26.749Z,100316.73
2023-01-13T08:19:53.775Z,100315.81
2023-01-13T08:22:20.758Z,100313.78
2023-01-13T08:24:50.773Z,100309.92
2023-01-13T08:27:17.656Z,100311.48
2023-01-13T08:29:44.547Z,100311.03
2023-01-13T08:32:11.454Z,100311.73
2023-01-13T08:34:42.139Z,100304.98
2023-01-13T08:37:09.091Z,100306.45
2023-01-13T08:39:40.614Z,100301.34
2023-01-13T08:42:07.791Z,100301.43
2023-01-13T08:44:34.746Z,100301.54
2023-01-13T08:47:01.622Z,100301.40
2023-01-13T08:49:28.551Z,100305.56
2023-01-13T08:51:55.502Z,100300.45
2023-01-13T08:54:22.425Z,100301.84
2023-01-13T08:56:49.600Z,100307.55
2023-01-13T08:59:18.500Z,100299.98
2023-01-13T09:01:45.696Z,100290.27
2023-01-13T09:04:20.572Z,100288.04
2023-01-13T09:06:48.137Z,100282.95
2023-01-13T09:09:15.203Z,100280.76
2023-01-13T09:12:02.006Z,100277.32
2023-01-13T09:14:30.559Z,100280.80
2023-01-13T09:16:57.746Z,100281.72
2023-01-13T09:19:24.900Z,100281.62
2023-01-13T09:21:52.781Z,100281.73
2023-01-13T09:24:20.928Z,100277.88
2023-01-13T09:26:48.284Z,100275.22
2023-01-13T09:29:15.455Z,100271.77
2023-01-13T09:31:44.219Z,100274.38
2023-01-13T09:34:37.733Z,100278.52
2023-01-13T09:37:05.914Z,100278.80
2023-01-13T09:39:33.660Z,100285.69
2023-01-13T09:42:24.301Z,100281.86
2023-01-13T09:44:55.648Z,100278.43
2023-01-13T13:18:19.637Z,100211.77
2023-01-13T13:20:54.320Z,100212.66
2023-01-13T13:23:33.615Z,100211.80
2023-01-13T13:26:10.359Z,100217.33
2023-01-13T13:28:38.323Z,100222.58
2023-01-13T13:31:18.557Z,100223.46
2023-01-13T13:33:49.983Z,100223.01
2023-01-13T13:36:29.460Z,100224.63
2023-01-13T13:39:44.203Z,100223.91
2023-01-13T13:42:37.924Z,100224.02
2023-01-13T13:45:44.152Z,100226.39
2023-01-13T13:48:22.700Z,100232.26
2023-01-13T13:51:02.466Z,100228.54
2023-01-13T13:53:33.934Z,100225.57
2023-01-13T13:56:02.122Z,100224.17
2023-01-13T13:58:30.495Z,100222.38
2023-01-13T14:00:57.632Z,100222.34
2023-01-13T14:03:29.561Z,100225.15
2023-01-13T14:06:04.312Z,100225.05
2023-01-13T14:08:33.866Z,100228.57
2023-01-13T14:11:01.013Z,100228.38
2023-01-13T14:13:29.628Z,100226.86
2023-01-13T14:16:10.074Z,100225.09
2023-01-13T14:18:48.228Z,100223.59
2023-01-13T14:21:41.463Z,100219.77
2023-01-13T14:24:15.967Z,100212.26
2023-01-13T14:26:43.023Z,100212.23
2023-01-13T14:29:13.789Z,100214.20
2023-01-13T14:31:40.821Z,100218.84
2023-01-13T14:34:31.812Z,100220.39
2023-01-13T14:36:55.400Z,100218.76
2023-01-13T14:39:32.449Z,100211.46
2023-01-13T14:41:59.381Z,100210.69
2023-01-13T14:44:35.095Z,100209.02
2023-01-13T14:47:25.539Z,100209.32
2023-01-13T14:50:29.602Z,100206.99
2023-01-13T14:52:57.366Z,100208.47
2023-01-13T14:55:28.622Z,100212.44
2023-01-13T14:58:20.716Z,100209.59
2023-01-13T15:00:48.347Z,100204.09
2023-01-13T15:03:16.482Z,100205.63
2023-01-13T15:05:52.939Z,100208.36
2023-01-13T15:08:25.792Z,100211.02
2023-01-13T15:11:00.043Z,100206.64
2023-01-13T15:13:35.591Z,100207.28
2023-01-13T15:16:27.976Z,100205.07
2023-01-13T15:18:55.910Z,100202.91
2023-01-13T15:21:23.450Z,100208.95
2023-01-13T15:23:50.989Z,100205.98
2023-01-13T15:26:22.344Z,100202.04
2023-01-13T15:28:50.825Z,100196.98
2023-01-13T15:31:24.553Z,100197.75
2023-01-13T15:33:51.682Z,100194.73
2023-01-13T15:36:32.866Z,100195.51
2023-01-13T15:39:00.563Z,100197.23
2023-01-13T15:41:46.324Z,100202.21
2023-01-13T15:44:33.153Z,100199.29
2023-01-13T15:47:02.316Z,100201.15
2023-01-13T15:49:37.982Z,100199.73
2023-01-13T15:52:12.354Z,100199.97
2023-01-13T15:54:39.313Z,100197.55
2023-01-13T15:57:06.221Z,100192.63
2023-01-13T15:59:35.688Z,100200.46
2023-01-13T16:02:02.688Z,100200.50
2023-01-13T16:04:29.783Z,100200.69
2023-01-13T16:06:57.340Z,100202.64
2023-01-13T16:09:24.226Z,100198.23
2023-01-13T16:11:51.090Z,100197.63
2023-01-13T16:14:18.038Z,100200.68
2023-01-13T16:16:44.955Z,100198.63
2023-01-13T16:19:12.438Z,100191.90
2023-01-13T16:21:40.603Z,100191.37
2023-01-13T16:24:07.579Z,100192.93
2023-01-13T16:26:37.543Z,100201.23
2023-01-13T16:29:04.946Z,100205.17
2023-01-13T16:31:33.199Z,100208.80
2023-01-13T16:34:04.233Z,100206.41
2023-01-13T16:36:33.732Z,100206.29
2023-01-13T16:39:00.679Z,100201.96
2023-01-13T16:41:27.992Z,100197.75
2023-01-13T16:43:55.244Z,100192.86
2023-01-13T16:46:27.313Z,100192.65
2023-01-13T16:48:55.737Z,100193.02
2023-01-13T16:51:22.979Z,100192.77
2023-01-13T16:53:50.097Z,100192.73
2023-01-13T16:56:25.453Z,100196.51
2023-01-13T16:58:53.975Z,100199.23
2023-01-13T17:01:24.644Z,100199.71
2023-01-13T17:03:51.852Z,100195.73
2023-01-13T17:06:21.990Z,100204.07
2023-01-13T17:08:48.794Z,100205.48
2023-01-13T17:11:16.006Z,100207.21
2023-01-13T17:13:43.369Z,100213.96
2023-01-13T17:16:18.714Z,100213.85
2023-01-13T19:43:53.173Z,100197.81
2023-01-13T19:46:20.092Z,100196.29
2023-01-13T19:48:46.971Z,100194.62
2023-01-13T19:51:14.751Z,100196.66
2023-01-13T19:53:42.331Z,100190.27
2023-01-13T19:56:13.905Z,100181.86
2023-01-13T19:58:42.132Z,100186.04
2023-01-13T20:01:16.343Z,100186.73
2023-01-13T20:03:45.974Z,100182.38
2023-01-13T20:06:14.213Z,100183.33
2023-01-13T20:08:42.164Z,100181.82
2023-01-13T20:11:23.429Z,100180.71
2023-01-13T20:13:52.254Z,100181.04
2023-01-13T20:16:19.161Z,100181.05
2023-01-13T20:18:49.730Z,100181.09
2023-01-13T20:21:16.588Z,100181.41
2023-01-13T20:23:44.501Z,100183.13
2023-01-13T20:26:11.601Z,100180.32
2023-01-13T20:28:39.680Z,100182.55
2023-01-13T20:31:10.648Z,100180.95
2023-01-13T20:33:38.924Z,100180.80
2023-01-13T20:36:06.240Z,100184.19
2023-01-13T20:38:41.214Z,100189.66
2023-01-13T20:41:26.922Z,100189.27
2023-01-13T20:43:53.972Z,100189.70
2023-01-13T20:46:21.443Z,100191.32
2023-01-13T20:48:48.622Z,100189.35
2023-01-13T20:51:15.535Z,100191.73
2023-01-13T20:53:42.810Z,100190.75
2023-01-13T20:56:10.121Z,100195.56
2023-01-13T20:58:40.342Z,100200.57
2023-01-13T21:01:07.392Z,100200.89
2023-01-13T21:03:34.585Z,100191.83
2023-01-13T21:06:01.525Z,100198.48
2023-01-13T21:08:28.650Z,100203.89
2023-01-13T21:11:04.423Z,100203.63
2023-01-13T21:13:50.682Z,100211.53
2023-01-13T21:16:17.887Z,100210.05
2023-01-13T21:19:03.636Z,100203.13
2023-01-13T21:21:30.605Z,100200.80
2023-01-13T21:23:57.503Z,100197.56
2023-01-13T21:26:24.413Z,100206.48
2023-01-13T21:28:51.449Z,100205.38
2023-01-13T21:31:18.388Z,100198.27
2023-01-13T21:33:47.717Z,100186.73
2023-01-13T21:36:15.071Z,100190.11
2023-01-13T21:38:42.345Z,100179.70
2023-01-13T21:41:09.496Z,100182.30
2023-01-13T21:43:56.141Z,100180.70
2023-01-13T21:46:42.378Z,100179.85
2023-01-13T21:49:09.829Z,100182.04
2023-01-13T21:51:36.754Z,100176.13
2023-01-13T21:54:03.970Z,100178.77
2023-01-13T21:56:30.857Z,100184.05
2023-01-13T21:58:57.845Z,100188.09
2023-01-13T22:01:24.876Z,100191.60
2023-01-13T22:04:10.619Z,100193.51
2023-01-13T22:06:37.618Z,100192.21
2023-01-13T22:09:04.630Z,100194.44
2023-01-13T22:11:34.374Z,100192.45
2023-01-13T22:14:08.744Z,100195.23
2023-01-13T22:16:48.849Z,100197.88
2023-01-13T22:19:18.172Z,100195.81
2023-01-13T22:21:45.125Z,100191.95
2023-01-13T22:24:12.017Z,100193.21
2023-01-13T22:26:39.385Z,100188.67
2023-01-13T22:29:06.405Z,100186.02
2023-01-13T22:31:33.403Z,100185.55
2023-01-13T22:34:00.329Z,100185.54
2023-01-13T22:36:27.307Z,100183.89
2023-01-13T22:38:56.151Z,100180.46
2023-01-13T22:41:23.080Z,100178.73
2023-01-13T22:43:50.023Z,100177.61
2023-01-13T22:46:17.472Z,100175.98
2023-01-13T22:48:44.622Z,100180.71
2023-01-13T22:51:16.007Z,100172.44
2023-01-13T22:53:43.523Z,100176.04
2023-01-13T22:56:15.851Z,100172.05
2023-01-13T22:58:43.365Z,100169.65
2023-01-13T23:01:10.309Z,100172.17
2023-01-13T23:03:37.322Z,100171.05
2023-01-13T23:06:05.319Z,100165.04
2023-01-13T23:08:35.377Z,100164.08
2023-01-13T23:11:10.982Z,100172.73
2023-01-13T23:13:39.450Z,100171.48
2023-01-13T23:16:08.630Z,100168.38
2023-01-13T23:18:35.554Z,100170.92
2023-01-13T23:21:06.669Z,100171.09
2023-01-13T23:23:33.795Z,100172.23
2023-01-13T23:26:00.850Z,100168.24
2023-01-13T23:28:27.788Z,100165.75
2023-01-13T23:30:54.872Z,100167.95
2023-01-13T23:33:23.143Z,100165.41
2023-01-13T23:36:00.381Z,100170.58
2023-01-13T23:38:27.778Z,100167.66
2023-01-13T23:40:54.763Z,100162.23
2023-01-13T23:43:22.039Z,100163.66
2023-01-13T23:45:49.175Z,100159.44
2023-01-13T23:48:16.140Z,100157.27
2023-01-13T23:50:43.057Z,100154.63
2023-01-13T23:53:10.107Z,100154.75
2023-01-13T23:55:37.562Z,100155.89
2023-01-13T23:58:04.467Z,100150.48
